Time;durP1;ratioP1;P1;durP2;ratioP2;P2;SDS_P1;SDS_P2;PMS_P1;PMS_P2;Temp;Humidity;BMP_temperature;BMP_pressure;BME280_temperature;BME280_humidity;BME280_pressure;Samples;Min_cycle;Max_cycle;Signal;HPM_P1;HPM_P2
2021/12/17 00:04:25;;;;;;;16.77;6.55;;;7.50;99.90;;;;;;5019869;28;20052;-65
2021/12/17 00:06:51;;;;;;;13.05;5.90;;;7.50;99.90;;;;;;5017842;28;20041;-66
2021/12/17 00:09:17;;;;;;;13.60;6.10;;;7.50;99.90;;;;;;5020480;28;20389;-65
2021/12/17 00:11:42;;;;;;;11.48;5.10;;;7.50;99.90;;;;;;5018733;28;20029;-66
2021/12/17 00:14:09;;;;;;;12.27;5.57;;;7.50;99.90;;;;;;5019540;28;20038;-66
2021/12/17 00:16:38;;;;;;;14.02;5.15;;;7.50;99.90;;;;;;5016763;28;20034;-64
2021/12/17 00:19:22;;;;;;;14.25;5.93;;;7.60;99.90;;;;;;5019494;28;20037;-65
2021/12/17 00:49:01;;;;;;;12.93;4.18;;;7.70;99.90;;;;;;5017326;28;20033;-65
2021/12/17 00:54:20;;;;;;;12.27;4.32;;;7.70;99.90;;;;;;5017706;28;20038;-66
2021/12/17 00:56:48;;;;;;;10.25;4.72;;;7.70;99.90;;;;;;5020302;28;20116;-66
2021/12/17 00:59:14;;;;;;;8.85;4.03;;;7.70;99.90;;;;;;5017724;28;20750;-64
2021/12/17 01:01:40;;;;;;;12.23;4.57;;;7.70;99.90;;;;;;5019792;28;20133;-64
2021/12/17 01:04:05;;;;;;;9.30;3.67;;;7.70;99.90;;;;;;5016854;28;20034;-65
2021/12/17 01:06:31;;;;;;;11.15;3.85;;;7.60;99.90;;;;;;5019221;28;20064;-66
2021/12/17 01:08:57;;;;;;;13.25;3.75;;;7.60;99.90;;;;;;5021472;28;20041;-64
2021/12/17 01:11:24;;;;;;;10.23;4.35;;;7.70;99.90;;;;;;5017378;28;20029;-67
2021/12/17 01:13:49;;;;;;;10.63;3.97;;;7.70;99.90;;;;;;5017844;28;20176;-64
2021/12/17 01:16:15;;;;;;;12.68;4.07;;;7.70;99.90;;;;;;5020109;28;20627;-66
2021/12/17 01:19:03;;;;;;;8.90;3.38;;;7.70;99.90;;;;;;5017847;28;21491;-64
2021/12/17 01:21:41;;;;;;;11.68;4.05;;;7.70;99.90;;;;;;5002819;28;20030;-66
2021/12/17 01:42:56;;;;;;;11.52;4.10;;;7.70;99.90;;;;;;4998109;28;20041;-67
2021/12/17 01:45:27;;;;;;;8.23;3.65;;;7.70;99.90;;;;;;5002528;28;20030;-67
2021/12/17 01:47:53;;;;;;;11.60;4.43;;;7.70;99.90;;;;;;5000998;28;20383;-67
2021/12/17 01:55:51;;;;;;;11.63;4.15;;;7.80;99.90;;;;;;4991823;28;20087;-67
2021/12/17 02:01:06;;;;;;;38.90;4.43;;;7.80;99.90;;;;;;4999349;28;20570;-67
2021/12/17 02:03:32;;;;;;;8.30;3.45;;;7.80;99.90;;;;;;4998852;28;20034;-68
2021/12/17 02:05:59;;;;;;;12.32;4.07;;;7.80;99.90;;;;;;5002180;28;20034;-68
2021/12/17 02:08:25;;;;;;;12.55;4.53;;;7.80;99.90;;;;;;4999775;28;20034;-68
2021/12/17 02:30:53;;;;;;;20.60;6.07;;;7.90;99.90;;;;;;4995210;28;20041;-68
2021/12/17 02:33:19;;;;;;;24.50;7.07;;;7.90;99.90;;;;;;5002248;28;20046;-68
2021/12/17 02:35:46;;;;;;;19.67;5.95;;;7.90;99.90;;;;;;5000537;28;20030;-68
2021/12/17 02:38:14;;;;;;;25.17;6.60;;;7.90;99.90;;;;;;4998712;28;20045;-67
2021/12/17 02:46:09;;;;;;;22.40;6.13;;;7.90;99.90;;;;;;4999187;28;20085;-66
2021/12/17 02:48:36;;;;;;;17.92;5.35;;;7.90;99.90;;;;;;5001422;28;20038;-66
2021/12/17 02:51:02;;;;;;;25.88;7.18;;;8.00;99.90;;;;;;4998426;28;20072;-68
2021/12/17 02:53:29;;;;;;;27.00;7.40;;;8.00;99.90;;;;;;4998589;28;20040;-68
2021/12/17 02:55:59;;;;;;;33.45;7.95;;;8.00;99.90;;;;;;4999411;28;20034;-68
2021/12/17 02:58:26;;;;;;;26.42;7.85;;;8.00;99.90;;;;;;5003980;28;20023;-68
2021/12/17 03:00:53;;;;;;;31.42;8.02;;;8.00;99.90;;;;;;5001653;28;20088;-67
2021/12/17 03:03:20;;;;;;;36.03;8.50;;;8.00;99.90;;;;;;4998663;28;20383;-67
2021/12/17 03:05:47;;;;;;;39.97;10.80;;;8.00;99.90;;;;;;5001672;28;20034;-67
2021/12/17 03:08:15;;;;;;;29.83;8.43;;;8.00;99.90;;;;;;4997220;28;20117;-68
2021/12/17 03:10:47;;;;;;;37.90;9.57;;;8.00;99.90;;;;;;4993292;28;20037;-67
2021/12/17 03:13:14;;;;;;;39.60;9.90;;;8.00;99.90;;;;;;4995024;28;20129;-68
2021/12/17 03:15:48;;;;;;;37.05;8.30;;;8.10;99.90;;;;;;5001852;28;20030;-68
2021/12/17 03:23:43;;;;;;;35.05;8.43;;;8.00;99.90;;;;;;4994791;28;20053;-67
2021/12/17 03:26:11;;;;;;;30.42;8.38;;;8.10;99.90;;;;;;5001301;28;20117;-68
2021/12/17 03:28:40;;;;;;;30.60;8.90;;;8.10;99.90;;;;;;4998255;28;20047;-67
2021/12/17 03:31:07;;;;;;;30.60;7.53;;;8.10;99.90;;;;;;5001322;28;20525;-67
2021/12/17 03:33:33;;;;;;;29.50;8.75;;;8.10;99.90;;;;;;5001927;28;20049;-66
2021/12/17 03:35:59;;;;;;;27.52;9.85;;;8.10;99.90;;;;;;4998265;28;20136;-67
2021/12/17 03:38:27;;;;;;;29.42;8.45;;;8.10;99.90;;;;;;4999482;28;20133;-68
2021/12/17 03:41:04;;;;;;;28.48;9.05;;;8.10;99.90;;;;;;4999737;28;20145;-66
2021/12/17 03:43:31;;;;;;;26.10;8.15;;;8.10;99.90;;;;;;4997916;28;20109;-67
2021/12/17 03:45:57;;;;;;;22.88;7.93;;;8.20;99.90;;;;;;4999610;28;20029;-68
2021/12/17 03:48:23;;;;;;;29.38;9.52;;;8.20;99.90;;;;;;4997328;28;20035;-67
2021/12/17 03:50:49;;;;;;;24.20;8.70;;;8.20;99.90;;;;;;5000579;28;20034;-66
2021/12/17 03:53:14;;;;;;;23.83;9.45;;;8.20;99.90;;;;;;4998135;28;20039;-67
2021/12/17 03:55:40;;;;;;;21.20;8.30;;;8.20;99.90;;;;;;5000574;28;20058;-68
2021/12/17 03:58:06;;;;;;;23.90;9.25;;;8.20;99.90;;;;;;4998028;28;20486;-67
2021/12/17 04:00:32;;;;;;;23.77;8.40;;;8.20;99.90;;;;;;5000081;28;20040;-68
2021/12/17 04:02:57;;;;;;;27.13;9.02;;;8.20;99.90;;;;;;4999246;28;20045;-67
2021/12/17 04:05:24;;;;;;;25.17;9.32;;;8.20;99.90;;;;;;4998201;28;20034;-67
2021/12/17 04:07:50;;;;;;;22.23;7.85;;;8.30;99.90;;;;;;4999841;28;20116;-67
2021/12/17 04:10:18;;;;;;;21.58;9.00;;;8.30;99.90;;;;;;4997607;28;20140;-68
2021/12/17 04:13:14;;;;;;;23.55;8.68;;;8.20;99.90;;;;;;4994047;28;20038;-66
2021/12/17 04:15:41;;;;;;;26.27;8.98;;;8.20;99.90;;;;;;4994888;28;20034;-67
2021/12/17 04:18:09;;;;;;;28.42;10.23;;;8.20;99.90;;;;;;4993480;28;20318;-67
2021/12/17 04:20:35;;;;;;;32.38;11.13;;;8.20;99.90;;;;;;5000015;28;20114;-67
2021/12/17 04:23:01;;;;;;;28.30;9.77;;;8.20;99.90;;;;;;5001237;28;20038;-65
2021/12/17 04:25:28;;;;;;;25.02;9.48;;;8.20;99.90;;;;;;4996013;28;20117;-68
2021/12/17 04:27:58;;;;;;;27.08;9.50;;;8.20;99.90;;;;;;5003708;28;20044;-67
2021/12/17 04:30:24;;;;;;;29.45;10.00;;;8.20;99.90;;;;;;4998840;28;20041;-67
2021/12/17 04:32:50;;;;;;;33.08;10.45;;;8.20;99.90;;;;;;4997156;28;20798;-67
2021/12/17 04:35:15;;;;;;;30.48;10.20;;;8.30;99.90;;;;;;4998320;28;20077;-66
2021/12/17 04:37:41;;;;;;;25.98;9.77;;;8.30;99.90;;;;;;4999467;28;20069;-66
2021/12/17 04:40:08;;;;;;;27.92;10.30;;;8.30;99.90;;;;;;5002167;28;20615;-67
2021/12/17 04:42:45;;;;;;;27.13;8.70;;;8.30;99.90;;;;;;4997705;28;20398;-66
2021/12/17 04:45:11;;;;;;;24.05;8.57;;;8.30;99.90;;;;;;4995922;28;20479;-67
2021/12/17 04:58:33;;;;;;;19.88;6.63;;;8.20;99.90;;;;;;5004340;28;20414;-66
2021/12/17 05:01:01;;;;;;;23.75;7.97;;;8.20;99.90;;;;;;5002041;28;20042;-67
2021/12/17 05:03:27;;;;;;;17.15;5.35;;;8.20;99.90;;;;;;5002697;28;20081;-67
2021/12/17 05:05:53;;;;;;;19.80;6.72;;;8.20;99.90;;;;;;5001157;28;20045;-66
2021/12/17 05:08:21;;;;;;;17.95;6.22;;;8.20;99.90;;;;;;5000679;28;20405;-68
2021/12/17 05:19:12;;;;;;;16.60;4.80;;;8.20;99.90;;;;;;4978951;28;20042;-67
2021/12/17 05:21:38;;;;;;;15.68;5.63;;;8.20;99.90;;;;;;5001110;28;20034;-67
2021/12/17 05:24:04;;;;;;;17.27;5.10;;;8.20;99.90;;;;;;5000860;28;20041;-68
2021/12/17 05:26:30;;;;;;;13.95;4.82;;;8.20;99.90;;;;;;5002869;28;20042;-67
2021/12/17 05:28:56;;;;;;;16.42;4.60;;;8.10;99.90;;;;;;5003112;28;20483;-68
2021/12/17 05:31:22;;;;;;;12.48;3.75;;;8.10;99.90;;;;;;5002032;28;20092;-67
2021/12/17 05:33:52;;;;;;;10.77;3.85;;;8.10;99.90;;;;;;5001803;28;20181;-68
2021/12/17 05:36:18;;;;;;;8.80;3.60;;;8.10;99.90;;;;;;5002217;28;20046;-66
2021/12/17 05:38:44;;;;;;;11.50;2.95;;;8.10;99.90;;;;;;5001759;28;20056;-67
2021/12/17 05:41:10;;;;;;;8.98;3.53;;;8.20;99.90;;;;;;5003473;28;20541;-68
2021/12/17 05:43:37;;;;;;;10.70;3.45;;;8.20;99.90;;;;;;5000654;28;20495;-66
2021/12/17 05:48:33;;;;;;;9.40;3.25;;;8.10;99.90;;;;;;4995307;28;20402;-66
2021/12/17 05:51:00;;;;;;;10.48;3.50;;;8.10;99.90;;;;;;5004264;28;20045;-66
2021/12/17 05:53:28;;;;;;;7.30;3.08;;;8.10;99.90;;;;;;5000658;28;20129;-67
2021/12/17 05:55:54;;;;;;;6.32;2.17;;;8.10;99.90;;;;;;5003221;28;20402;-67
2021/12/17 05:58:20;;;;;;;5.43;2.47;;;8.10;99.90;;;;;;5002290;28;20041;-67
2021/12/17 06:00:46;;;;;;;10.43;2.40;;;8.10;99.90;;;;;;5002001;28;20034;-67
2021/12/17 06:03:12;;;;;;;11.75;2.47;;;8.10;99.90;;;;;;5003161;28;20107;-67
2021/12/17 06:05:38;;;;;;;5.50;2.10;;;8.20;99.90;;;;;;5004929;28;20034;-67
2021/12/17 06:08:04;;;;;;;6.45;2.30;;;8.20;99.90;;;;;;5006784;28;20034;-68
2021/12/17 06:10:30;;;;;;;8.02;2.38;;;8.20;99.90;;;;;;5000367;28;20117;-68
2021/12/17 06:12:56;;;;;;;7.28;2.33;;;8.20;99.90;;;;;;5001047;28;20118;-66
2021/12/17 06:15:22;;;;;;;5.93;2.58;;;8.20;99.90;;;;;;5004251;28;20049;-68
2021/12/17 06:17:49;;;;;;;9.10;2.67;;;8.20;99.90;;;;;;5002268;28;20118;-68
2021/12/17 06:20:19;;;;;;;7.05;2.15;;;8.20;99.90;;;;;;5008935;28;20052;-67
2021/12/17 06:22:45;;;;;;;8.35;2.58;;;8.30;99.90;;;;;;5016869;28;20054;-68
2021/12/17 06:25:12;;;;;;;5.93;2.42;;;8.20;99.90;;;;;;5013258;28;20042;-70
2021/12/17 06:27:38;;;;;;;6.35;1.80;;;8.20;99.90;;;;;;5012705;28;20038;-67
2021/12/17 06:30:06;;;;;;;6.60;2.42;;;8.30;99.90;;;;;;5004970;28;20026;-67
2021/12/17 06:32:32;;;;;;;6.05;2.30;;;8.20;99.90;;;;;;5004134;28;20042;-68
2021/12/17 06:34:58;;;;;;;8.48;2.75;;;8.30;99.90;;;;;;5001348;28;20445;-67
2021/12/17 06:37:23;;;;;;;5.65;1.90;;;8.30;99.90;;;;;;5004741;28;20038;-68
2021/12/17 06:39:49;;;;;;;10.02;2.30;;;8.30;99.90;;;;;;5010513;28;20030;-68
2021/12/17 06:42:16;;;;;;;4.45;2.03;;;8.30;99.90;;;;;;5006258;28;20399;-68
2021/12/17 06:44:43;;;;;;;4.47;1.92;;;8.20;99.90;;;;;;5007709;28;20053;-68
2021/12/17 06:49:57;;;;;;;6.25;2.08;;;8.20;99.90;;;;;;5014898;28;20034;-69
2021/12/17 07:05:59;;;;;;;8.43;4.22;;;8.20;99.90;;;;;;4998337;28;20049;-67
2021/12/17 07:17:09;;;;;;;7.93;3.00;;;8.30;99.90;;;;;;4997480;28;20092;-68
2021/12/17 07:39:51;;;;;;;9.20;3.08;;;8.30;99.90;;;;;;5001390;28;20026;-68
2021/12/17 07:42:17;;;;;;;6.43;2.72;;;8.30;99.90;;;;;;4999283;28;20070;-67
2021/12/17 07:44:43;;;;;;;7.40;3.17;;;8.40;99.90;;;;;;4999844;28;20482;-68
2021/12/17 07:47:08;;;;;;;6.03;2.60;;;8.40;99.90;;;;;;5000428;28;20061;-68
2021/12/17 07:49:34;;;;;;;6.18;2.78;;;8.40;99.90;;;;;;4999068;28;20037;-67
2021/12/17 07:51:59;;;;;;;6.05;2.40;;;8.40;99.90;;;;;;4997268;28;20376;-68
2021/12/17 07:54:25;;;;;;;6.95;3.15;;;8.30;99.90;;;;;;4998436;28;20076;-68
2021/12/17 07:56:51;;;;;;;8.90;3.40;;;8.40;99.90;;;;;;4997842;28;20120;-67
2021/12/17 07:59:16;;;;;;;6.45;2.53;;;8.40;99.90;;;;;;4994384;28;20072;-68
2021/12/17 08:01:42;;;;;;;6.25;2.50;;;8.40;99.90;;;;;;4994487;28;20185;-68
2021/12/17 08:04:09;;;;;;;7.28;2.60;;;8.40;99.90;;;;;;4992151;28;20049;-67
2021/12/17 08:06:36;;;;;;;7.30;2.53;;;8.40;99.90;;;;;;4992767;28;20034;-68
2021/12/17 08:09:04;;;;;;;6.78;2.55;;;8.40;99.90;;;;;;4992586;28;20046;-68
2021/12/17 08:11:31;;;;;;;7.03;2.95;;;8.40;99.90;;;;;;4992032;28;20038;-68
2021/12/17 08:13:58;;;;;;;9.35;3.13;;;8.40;99.90;;;;;;4993563;28;20121;-68
2021/12/17 08:31:55;;;;;;;9.45;3.25;;;8.50;99.90;;;;;;4992770;28;20484;-68
2021/12/17 08:34:21;;;;;;;7.85;3.70;;;8.50;99.90;;;;;;4993015;28;20039;-68
2021/12/17 08:36:47;;;;;;;11.23;3.47;;;8.50;99.90;;;;;;4996294;28;20038;-66
2021/12/17 08:39:13;;;;;;;11.10;3.63;;;8.50;99.90;;;;;;4996072;28;20045;-68
2021/12/17 08:41:40;;;;;;;11.45;4.03;;;8.50;99.90;;;;;;4995072;28;20038;-68
2021/12/17 08:44:06;;;;;;;13.57;4.38;;;8.50;99.90;;;;;;4994161;28;20043;-68
2021/12/17 08:46:33;;;;;;;11.68;3.90;;;8.50;99.90;;;;;;4997403;28;20165;-69
2021/12/17 08:48:58;;;;;;;11.07;4.20;;;8.50;99.90;;;;;;4995362;28;20030;-68
2021/12/17 08:51:25;;;;;;;10.27;4.30;;;8.50;99.90;;;;;;4998976;28;20045;-68
2021/12/17 08:53:51;;;;;;;8.27;3.50;;;8.50;99.90;;;;;;4995708;28;20037;-67
2021/12/17 08:56:22;;;;;;;9.80;3.92;;;8.60;99.90;;;;;;4995947;28;20061;-68
2021/12/17 08:58:51;;;;;;;8.60;3.05;;;8.60;99.90;;;;;;4994859;28;20145;-69
2021/12/17 09:01:17;;;;;;;9.73;3.75;;;8.70;99.90;;;;;;4998342;28;20030;-68
2021/12/17 09:03:43;;;;;;;7.63;3.15;;;8.70;99.90;;;;;;4997035;28;20108;-68
2021/12/17 09:06:09;;;;;;;8.18;3.33;;;8.70;99.90;;;;;;4996655;28;20487;-69
2021/12/17 09:08:34;;;;;;;7.32;3.58;;;8.70;99.90;;;;;;4995140;28;20441;-67
2021/12/17 09:11:00;;;;;;;7.25;3.03;;;8.70;99.90;;;;;;4998440;28;20556;-68
2021/12/17 09:13:27;;;;;;;8.70;3.30;;;8.70;99.90;;;;;;4994932;28;20441;-68
2021/12/17 09:15:57;;;;;;;10.32;3.95;;;8.80;99.90;;;;;;4997591;28;20030;-68
2021/12/17 09:18:24;;;;;;;10.93;3.85;;;8.70;99.90;;;;;;4984448;28;20441;-68
2021/12/17 09:20:49;;;;;;;8.50;3.88;;;8.80;99.90;;;;;;4983267;28;20510;-67
2021/12/17 09:23:15;;;;;;;11.88;4.07;;;8.90;99.90;;;;;;4986396;28;20065;-68
2021/12/17 09:25:41;;;;;;;9.55;3.50;;;8.80;99.90;;;;;;4984076;28;20038;-68
2021/12/17 09:28:07;;;;;;;7.07;3.13;;;8.80;99.90;;;;;;4985056;28;20036;-68
2021/12/17 09:30:32;;;;;;;9.13;3.72;;;8.90;99.90;;;;;;4985074;28;20034;-68
2021/12/17 09:32:58;;;;;;;9.85;3.83;;;8.80;99.90;;;;;;4985648;28;20045;-68
2021/12/17 09:35:24;;;;;;;9.65;3.45;;;8.80;99.90;;;;;;4986332;28;20076;-67
2021/12/17 09:37:51;;;;;;;8.85;3.33;;;8.80;99.90;;;;;;4985390;28;20027;-66
2021/12/17 09:40:17;;;;;;;7.45;3.53;;;8.80;99.90;;;;;;4991308;28;20034;-68
2021/12/17 09:42:45;;;;;;;7.70;2.80;;;8.90;99.90;;;;;;4997634;28;20093;-68
2021/12/17 09:45:12;;;;;;;8.60;3.35;;;8.90;99.90;;;;;;4991683;28;20026;-68
2021/12/17 09:47:42;;;;;;;6.35;2.85;;;8.90;99.90;;;;;;4990362;28;20038;-68
2021/12/17 09:50:09;;;;;;;6.22;2.45;;;8.90;99.90;;;;;;4987949;28;20302;-69
2021/12/17 09:52:35;;;;;;;10.00;2.42;;;9.10;99.90;;;;;;4990028;28;20026;-68
2021/12/17 09:55:02;;;;;;;7.22;3.38;;;9.10;99.90;;;;;;4989993;28;20052;-69
2021/12/17 09:57:30;;;;;;;6.30;2.55;;;9.10;99.90;;;;;;4987020;28;20019;-68
2021/12/17 09:59:56;;;;;;;6.03;2.75;;;9.10;99.90;;;;;;4990899;28;20130;-68
2021/12/17 10:02:21;;;;;;;6.07;2.60;;;9.10;99.90;;;;;;4998697;28;20105;-68
2021/12/17 10:04:47;;;;;;;4.90;1.70;;;9.10;99.90;;;;;;4993627;28;20030;-68
2021/12/17 10:07:20;;;;;;;3.42;1.73;;;9.10;99.90;;;;;;4993795;28;20023;-67
2021/12/17 10:09:50;;;;;;;3.53;1.27;;;9.10;99.90;;;;;;4997876;28;20044;-67
2021/12/17 10:12:16;;;;;;;3.58;1.33;;;9.10;99.90;;;;;;4993339;28;20029;-67
2021/12/17 10:14:56;;;;;;;3.40;1.25;;;9.10;99.90;;;;;;5002166;28;20084;-68
2021/12/17 10:17:22;;;;;;;2.63;1.20;;;9.10;99.90;;;;;;4996530;28;20520;-65
2021/12/17 10:19:53;;;;;;;2.35;0.90;;;9.10;99.90;;;;;;5001490;28;20034;-67
2021/12/17 10:22:20;;;;;;;4.63;0.95;;;9.10;99.90;;;;;;4995954;28;20026;-67
2021/12/17 10:24:57;;;;;;;1.52;0.68;;;9.10;99.90;;;;;;4996310;28;20076;-68
2021/12/17 10:27:26;;;;;;;3.30;0.80;;;9.10;99.90;;;;;;5002023;28;20498;-68
2021/12/17 10:29:53;;;;;;;2.80;0.80;;;9.00;99.90;;;;;;4993946;28;20034;-67
2021/12/17 10:32:21;;;;;;;2.97;0.82;;;9.10;99.90;;;;;;4997243;28;20493;-68
2021/12/17 10:35:08;;;;;;;2.33;0.98;;;9.10;99.90;;;;;;4997677;28;20069;-67
2021/12/17 10:37:55;;;;;;;1.20;0.65;;;9.10;99.90;;;;;;5000083;28;20073;-67
2021/12/17 10:40:34;;;;;;;1.75;0.60;;;9.10;99.90;;;;;;4995233;28;20037;-67
2021/12/17 10:43:32;;;;;;;1.50;0.73;;;9.10;99.90;;;;;;5001684;28;20394;-67
2021/12/17 10:51:29;;;;;;;1.75;0.55;;;9.10;99.90;;;;;;5001054;28;20034;-68
2021/12/17 10:53:57;;;;;;;2.30;0.90;;;9.00;99.90;;;;;;5009639;28;20042;-67
2021/12/17 10:56:26;;;;;;;2.67;0.98;;;9.10;99.90;;;;;;4998073;28;20034;-67
2021/12/17 10:59:04;;;;;;;2.60;1.02;;;9.10;99.90;;;;;;4998324;28;20113;-66
2021/12/17 11:01:41;;;;;;;1.92;0.68;;;9.10;99.90;;;;;;4986953;28;20122;-67
2021/12/17 11:04:12;;;;;;;2.50;1.20;;;9.20;99.90;;;;;;4989831;28;20129;-68
2021/12/17 11:07:01;;;;;;;2.88;1.17;;;9.10;99.90;;;;;;4985097;28;20116;-67
2021/12/17 11:09:50;;;;;;;2.15;1.02;;;9.10;99.90;;;;;;4982403;28;20037;-67
2021/12/17 11:12:35;;;;;;;2.55;0.73;;;9.10;99.90;;;;;;4988394;28;20061;-68
2021/12/17 11:15:22;;;;;;;2.22;0.85;;;9.10;99.90;;;;;;4991323;28;20046;-68
2021/12/17 11:17:56;;;;;;;2.22;0.80;;;9.10;99.90;;;;;;4987074;28;20045;-67
2021/12/17 11:20:25;;;;;;;1.42;0.70;;;9.10;99.90;;;;;;4987085;28;20545;-67
2021/12/17 11:22:52;;;;;;;2.00;0.82;;;9.20;99.90;;;;;;4993729;28;20038;-65
2021/12/17 11:25:20;;;;;;;3.38;0.88;;;9.10;99.90;;;;;;4986819;28;20053;-66
2021/12/17 11:27:46;;;;;;;1.85;0.80;;;9.10;99.90;;;;;;4986407;28;20393;-66
2021/12/17 11:30:19;;;;;;;3.22;1.30;;;9.10;99.90;;;;;;4988426;28;20068;-67
2021/12/17 11:32:46;;;;;;;2.55;1.23;;;9.10;99.90;;;;;;4989347;28;20053;-66
2021/12/17 11:35:15;;;;;;;2.88;1.50;;;9.10;99.90;;;;;;4987499;28;20065;-67
2021/12/17 11:37:43;;;;;;;3.42;1.25;;;9.10;99.90;;;;;;4986016;28;20035;-67
2021/12/17 11:40:23;;;;;;;4.85;1.35;;;9.00;99.90;;;;;;4987437;28;20093;-68
2021/12/17 11:43:02;;;;;;;3.83;1.47;;;8.90;99.90;;;;;;4987269;28;20137;-67
2021/12/17 11:45:29;;;;;;;2.78;1.38;;;9.00;99.90;;;;;;4986737;28;20363;-68
2021/12/17 11:48:18;;;;;;;3.30;1.00;;;9.00;99.90;;;;;;4987531;28;20109;-67
2021/12/17 11:51:03;;;;;;;2.85;1.13;;;9.00;99.90;;;;;;4978035;28;20030;-65
2021/12/17 11:53:29;;;;;;;2.13;0.93;;;9.00;99.90;;;;;;4986443;28;20043;-68
2021/12/17 11:55:57;;;;;;;3.67;1.40;;;9.00;99.90;;;;;;4988190;28;20045;-67
2021/12/17 11:58:51;;;;;;;4.85;1.60;;;9.00;99.90;;;;;;4988950;28;20406;-66
2021/12/17 12:01:49;;;;;;;3.38;1.52;;;8.90;99.90;;;;;;4981643;28;20042;-65
2021/12/17 12:04:21;;;;;;;2.75;1.00;;;9.00;99.90;;;;;;4978837;28;20062;-67
2021/12/17 12:07:03;;;;;;;4.00;1.25;;;8.90;99.90;;;;;;4985145;28;20061;-67
2021/12/17 12:09:59;;;;;;;4.55;1.27;;;9.00;99.90;;;;;;4981985;28;20037;-68
2021/12/17 12:12:45;;;;;;;3.80;1.58;;;8.90;99.90;;;;;;4985212;28;20101;-65
2021/12/17 12:15:38;;;;;;;3.20;1.50;;;9.00;99.90;;;;;;4978018;28;20042;-68
2021/12/17 12:18:09;;;;;;;4.88;1.45;;;8.90;99.90;;;;;;4986934;28;20177;-67
2021/12/17 12:20:46;;;;;;;2.70;1.38;;;8.90;99.90;;;;;;4988283;28;20180;-68
2021/12/17 12:23:16;;;;;;;2.92;1.13;;;8.90;99.90;;;;;;4988599;28;20466;-64
2021/12/17 12:25:42;;;;;;;2.17;0.73;;;8.90;99.90;;;;;;4986594;28;20051;-67
2021/12/17 12:28:07;;;;;;;2.42;0.90;;;8.90;99.90;;;;;;4985969;28;20031;-65
2021/12/17 12:30:42;;;;;;;3.17;1.13;;;9.00;99.90;;;;;;4991625;28;20034;-65
2021/12/17 12:33:09;;;;;;;5.75;0.93;;;9.00;99.90;;;;;;4998251;28;20069;-68
2021/12/17 12:35:35;;;;;;;1.88;0.85;;;9.00;99.90;;;;;;4992667;28;20027;-67
2021/12/17 12:38:26;;;;;;;2.08;0.65;;;9.00;99.90;;;;;;4995830;28;20034;-68
2021/12/17 12:40:55;;;;;;;2.90;1.02;;;9.10;99.90;;;;;;4984327;28;20026;-67
2021/12/17 12:43:30;;;;;;;2.90;1.13;;;9.00;99.90;;;;;;4985284;28;20494;-68
2021/12/17 12:45:56;;;;;;;2.03;0.90;;;9.00;99.90;;;;;;4985958;28;20068;-67
2021/12/17 12:48:38;;;;;;;2.95;1.13;;;9.00;99.90;;;;;;4992025;28;20053;-68
2021/12/17 12:51:20;;;;;;;2.13;1.33;;;9.00;99.90;;;;;;4996424;28;20061;-68
2021/12/17 12:54:08;;;;;;;3.97;1.45;;;9.10;99.90;;;;;;4986847;28;20034;-65
2021/12/17 12:56:38;;;;;;;3.50;1.52;;;9.00;99.90;;;;;;4985116;28;20077;-68
2021/12/17 12:59:06;;;;;;;2.67;1.25;;;9.10;99.90;;;;;;4988633;28;20042;-68
2021/12/17 13:01:32;;;;;;;3.72;1.52;;;9.10;99.90;;;;;;4986415;28;20375;-68
2021/12/17 13:03:58;;;;;;;3.75;1.48;;;9.10;99.90;;;;;;4986899;28;20034;-68
2021/12/17 13:06:25;;;;;;;4.03;1.42;;;9.00;99.90;;;;;;4985023;28;20054;-67
2021/12/17 13:08:57;;;;;;;4.32;1.80;;;9.00;99.90;;;;;;4986589;28;20026;-66
2021/12/17 13:11:24;;;;;;;3.28;1.50;;;9.00;99.90;;;;;;4986712;28;20818;-68
2021/12/17 13:13:53;;;;;;;5.97;1.85;;;9.00;99.90;;;;;;4986654;28;20035;-68
2021/12/17 13:24:14;;;;;;;2.55;1.52;;;9.10;99.90;;;;;;4993769;28;20071;-67
2021/12/17 13:26:41;;;;;;;3.25;1.30;;;9.00;99.90;;;;;;4989805;28;20515;-68
2021/12/17 13:29:20;;;;;;;3.67;1.58;;;9.00;99.90;;;;;;4988289;28;20047;-68
2021/12/17 13:31:58;;;;;;;4.55;2.03;;;9.00;99.90;;;;;;4988647;28;20498;-68
2021/12/17 13:34:53;;;;;;;3.78;1.42;;;9.10;99.90;;;;;;4985881;28;20053;-68
2021/12/17 13:37:34;;;;;;;4.40;1.52;;;9.20;99.90;;;;;;4990421;28;20450;-66
2021/12/17 13:40:00;;;;;;;2.05;1.23;;;9.20;99.90;;;;;;4992895;28;20653;-68
2021/12/17 13:42:32;;;;;;;6.78;1.70;;;9.20;99.90;;;;;;4989875;28;20053;-67
2021/12/17 13:44:59;;;;;;;5.78;1.17;;;9.30;99.90;;;;;;4992397;28;20030;-66
2021/12/17 13:47:28;;;;;;;2.13;1.02;;;9.40;99.90;;;;;;4989584;28;20038;-67
2021/12/17 13:50:00;;;;;;;1.95;1.17;;;9.40;99.90;;;;;;4989917;28;20429;-67
2021/12/17 13:52:29;;;;;;;4.18;1.48;;;9.40;99.90;;;;;;4998074;28;20050;-69
2021/12/17 13:54:57;;;;;;;6.13;1.35;;;9.40;99.90;;;;;;5000935;28;20050;-67
2021/12/17 13:57:26;;;;;;;1.63;0.80;;;9.50;99.90;;;;;;5000793;28;20524;-67
2021/12/17 13:59:52;;;;;;;1.63;0.90;;;9.50;99.90;;;;;;4990394;28;20438;-67
2021/12/17 14:02:21;;;;;;;3.17;0.88;;;9.50;99.90;;;;;;4991876;28;20076;-66
2021/12/17 14:05:11;;;;;;;2.90;1.20;;;9.50;99.90;;;;;;4990689;28;20502;-68
2021/12/17 14:07:38;;;;;;;2.45;0.98;;;9.50;99.90;;;;;;4989434;28;20039;-68
2021/12/17 14:10:09;;;;;;;3.60;0.90;;;9.50;99.90;;;;;;4995414;28;20133;-69
2021/12/17 14:12:39;;;;;;;2.25;0.90;;;9.50;99.90;;;;;;4997971;28;20133;-68
2021/12/17 14:15:12;;;;;;;4.10;1.42;;;9.50;99.90;;;;;;4997027;28;20472;-68
2021/12/17 14:17:46;;;;;;;1.60;1.10;;;9.50;99.90;;;;;;4996586;28;20073;-68
2021/12/17 14:20:13;;;;;;;3.60;1.00;;;9.50;99.90;;;;;;4997702;28;20062;-68
2021/12/17 14:22:44;;;;;;;2.05;0.90;;;9.50;99.90;;;;;;5002509;28;20125;-67
2021/12/17 14:25:34;;;;;;;3.60;0.95;;;9.40;99.90;;;;;;4999114;28;20403;-66
2021/12/17 14:28:07;;;;;;;1.83;0.93;;;9.40;99.90;;;;;;4991367;28;21088;-67
2021/12/17 14:30:33;;;;;;;2.17;0.98;;;9.50;99.90;;;;;;4987869;28;20032;-67
2021/12/17 14:33:15;;;;;;;2.35;0.90;;;9.50;99.90;;;;;;4993200;28;20069;-65
2021/12/17 14:36:05;;;;;;;1.80;0.98;;;9.50;99.90;;;;;;4986381;28;20030;-67
2021/12/17 14:38:55;;;;;;;3.05;0.80;;;9.40;99.90;;;;;;4988314;28;20104;-65
2021/12/17 14:41:32;;;;;;;2.70;1.02;;;9.40;99.90;;;;;;4990239;28;20057;-67
2021/12/17 14:44:04;;;;;;;1.65;0.90;;;9.40;99.90;;;;;;4989557;28;20030;-67
2021/12/17 14:46:52;;;;;;;2.10;1.15;;;9.40;99.90;;;;;;4991472;28;20029;-68
2021/12/17 15:05:12;;;;;;;2.65;1.30;;;9.40;99.90;;;;;;5005720;28;20042;-70
2021/12/17 15:07:38;;;;;;;5.80;2.08;;;9.30;99.90;;;;;;5012137;28;20034;-68
2021/12/17 15:10:09;;;;;;;2.70;1.45;;;9.30;99.90;;;;;;4999394;28;20069;-68
2021/12/17 15:15:03;;;;;;;2.92;1.40;;;9.30;99.90;;;;;;5000478;28;20192;-68
2021/12/17 15:17:29;;;;;;;6.07;1.73;;;9.30;99.90;;;;;;5008251;28;20041;-68
2021/12/17 15:19:54;;;;;;;3.58;1.83;;;9.40;99.90;;;;;;5012596;28;20035;-68
2021/12/17 15:22:20;;;;;;;4.03;1.55;;;9.30;99.90;;;;;;5019514;28;20046;-70
2021/12/17 15:24:45;;;;;;;4.40;1.80;;;9.30;99.90;;;;;;5007629;28;20030;-70
2021/12/17 15:27:13;;;;;;;3.90;2.03;;;9.30;99.90;;;;;;5006820;28;20042;-70
2021/12/17 15:29:39;;;;;;;5.40;2.38;;;9.30;99.90;;;;;;4992569;28;20057;-68
2021/12/17 15:32:05;;;;;;;4.50;1.60;;;9.30;99.90;;;;;;4993914;28;20049;-68
2021/12/17 15:34:31;;;;;;;3.33;1.77;;;9.30;99.90;;;;;;4994785;28;20183;-68
2021/12/17 15:36:58;;;;;;;4.97;1.80;;;9.30;99.90;;;;;;4997760;28;20046;-67
2021/12/17 15:39:24;;;;;;;3.97;1.92;;;9.40;99.90;;;;;;4999083;28;20060;-69
2021/12/17 15:41:50;;;;;;;4.55;2.15;;;9.30;99.90;;;;;;4997722;28;20040;-68
2021/12/17 15:44:15;;;;;;;5.60;1.98;;;9.30;99.90;;;;;;4990020;28;20034;-67
2021/12/17 15:46:41;;;;;;;3.78;1.90;;;9.30;99.90;;;;;;4985811;28;20092;-68
2021/12/17 15:49:07;;;;;;;4.90;2.42;;;9.30;99.90;;;;;;4988783;28;20038;-68
2021/12/17 15:51:36;;;;;;;3.45;1.70;;;9.30;99.90;;;;;;4990062;28;20121;-68
2021/12/17 15:54:04;;;;;;;3.75;2.10;;;9.30;99.90;;;;;;4990578;28;20049;-67
2021/12/17 15:56:32;;;;;;;4.50;1.98;;;9.30;99.90;;;;;;4985766;28;20061;-67
2021/12/17 15:59:01;;;;;;;4.95;2.30;;;9.30;99.90;;;;;;4989441;28;20057;-68
2021/12/17 16:01:27;;;;;;;3.30;1.70;;;9.20;99.90;;;;;;4988823;28;20038;-67
2021/12/17 16:03:52;;;;;;;8.70;2.55;;;9.20;99.90;;;;;;4988858;28;20049;-68
2021/12/17 16:06:18;;;;;;;3.55;1.92;;;9.20;99.90;;;;;;4991664;28;20092;-65
2021/12/17 16:08:48;;;;;;;5.00;2.10;;;9.20;99.90;;;;;;4991555;28;20034;-67
2021/12/17 16:22:15;;;;;;;5.32;2.65;;;9.10;99.90;;;;;;4989137;28;20092;-67
2021/12/17 16:24:41;;;;;;;5.93;2.45;;;9.10;99.90;;;;;;4987457;28;20042;-68
2021/12/17 16:27:07;;;;;;;5.60;2.58;;;9.10;99.90;;;;;;4985410;28;20129;-65
2021/12/17 16:29:33;;;;;;;6.28;2.50;;;9.00;99.90;;;;;;4985481;28;20110;-66
2021/12/17 16:31:59;;;;;;;5.32;2.55;;;9.00;99.90;;;;;;4987994;28;20053;-67
2021/12/17 16:34:25;;;;;;;6.70;2.78;;;9.10;99.90;;;;;;4985582;28;20058;-66
2021/12/17 16:36:51;;;;;;;9.23;3.33;;;9.00;99.90;;;;;;4988891;28;20100;-63
2021/12/17 16:39:17;;;;;;;5.68;2.28;;;9.00;99.90;;;;;;4989739;28;20044;-67
2021/12/17 16:41:43;;;;;;;9.18;2.92;;;9.10;99.90;;;;;;4983661;28;20042;-66